Mound, Texas
Current Conditions -  °F | °C
As of 7:35 PM on Monday 20 Oct 2014 (Local Time) from KGOP Reporting Station
Clear Clear  
Wind Chill: 72°   Ceiling: Unl
Heat Index: 72°   Visibility: 10mi
Dew Point: 59°   Wind: 0mph
Humidity: 64%   Direction: NA
Pressure: 30.04"   Gusts: NA
Location:  31.35°N, 97.64°W
Report Text: KGOP 210035Z AUTO 00000KT 10SM CLR 22/15 A3004 RMK AO2
Loading
Personal Weather Stations






























Interactive Weather Map New forecast layout! Learn more

10-Day Weather Forecast

Advertisements
Track Severe Weather on mobile